Time;durP1;ratioP1;P1;durP2;ratioP2;P2;SDS_P1;SDS_P2;PMS_P1;PMS_P2;Temp;Humidity;BMP_temperature;BMP_pressure;BME280_temperature;BME280_humidity;BME280_pressure;Samples;Min_cycle;Max_cycle;Signal;HPM_P1;HPM_P2
2022/06/15 00:02:09;;;;;;;3.72;2.35;;;28.00;42.10;;;;;;6200102;28;20018;-70
2022/06/15 00:05:10;;;;;;;3.72;2.40;;;28.00;42.40;;;;;;6181382;28;20026;-71
2022/06/15 00:08:12;;;;;;;3.92;2.22;;;27.90;42.70;;;;;;6202437;28;20014;-70
2022/06/15 00:11:16;;;;;;;2.97;2.22;;;27.90;42.80;;;;;;6204408;28;20025;-69
2022/06/15 00:14:21;;;;;;;4.50;2.33;;;27.90;42.90;;;;;;6202786;28;20069;-70
2022/06/15 00:17:22;;;;;;;3.83;2.65;;;27.80;43.10;;;;;;6201272;28;20037;-70
2022/06/15 00:20:23;;;;;;;3.95;2.42;;;27.80;43.20;;;;;;6192023;28;20022;-70
2022/06/15 00:23:25;;;;;;;4.05;2.20;;;27.70;43.10;;;;;;6183915;28;20431;-70
2022/06/15 00:26:26;;;;;;;5.45;2.60;;;27.70;43.20;;;;;;6203262;28;20026;-70
2022/06/15 00:29:27;;;;;;;6.15;2.63;;;27.70;43.40;;;;;;6198331;28;20363;-72
2022/06/15 00:32:28;;;;;;;4.68;2.10;;;27.60;43.50;;;;;;6188826;28;20022;-70
2022/06/15 00:35:29;;;;;;;3.15;2.28;;;27.60;43.80;;;;;;6197177;28;20382;-70
2022/06/15 00:38:33;;;;;;;7.05;2.40;;;27.50;43.80;;;;;;6187184;28;20041;-70
2022/06/15 00:41:37;;;;;;;4.72;2.35;;;27.40;44.00;;;;;;6175923;28;20030;-71
2022/06/15 00:44:39;;;;;;;4.15;2.20;;;27.40;44.40;;;;;;6173066;28;20025;-70
2022/06/15 00:47:43;;;;;;;7.78;2.75;;;27.30;44.50;;;;;;6166963;28;20035;-70
2022/06/15 00:50:44;;;;;;;4.78;2.22;;;27.30;44.70;;;;;;6186007;28;20029;-70
2022/06/15 00:53:45;;;;;;;9.18;2.58;;;27.20;44.70;;;;;;6203764;28;20447;-70
2022/06/15 00:56:46;;;;;;;5.95;3.03;;;27.20;44.70;;;;;;6182976;28;20097;-70
2022/06/15 01:00:01;;;;;;;5.05;2.60;;;27.20;44.70;;;;;;6199948;28;20049;-70
2022/06/15 01:03:03;;;;;;;4.47;2.50;;;27.20;44.70;;;;;;6201408;28;20042;-70
2022/06/15 01:06:09;;;;;;;2.90;2.20;;;27.20;44.70;;;;;;6200249;28;20464;-70
2022/06/15 01:09:28;;;;;;;5.20;2.38;;;27.10;44.80;;;;;;6185501;28;20022;-70
2022/06/15 01:12:36;;;;;;;;;;;27.10;45.00;;;;;;6211316;28;20022;-70
2022/06/15 01:16:04;;;;;;;4.15;2.42;;;27.10;45.10;;;;;;6197694;28;20324;-70
2022/06/15 01:19:30;;;;;;;4.85;2.88;;;27.00;45.20;;;;;;6123447;29;20040;-70
2022/06/15 01:22:31;;;;;;;6.55;2.50;;;27.00;45.20;;;;;;6130660;29;20047;-70
2022/06/15 01:25:40;;;;;;;10.38;2.88;;;27.00;45.40;;;;;;6127837;29;20382;-70
2022/06/15 01:29:17;;;;;;;6.57;2.90;;;26.90;45.50;;;;;;6131858;29;20118;-70
2022/06/15 01:32:58;;;;;;;5.65;3.25;;;26.90;45.50;;;;;;6122835;29;20027;-70
2022/06/15 01:36:44;;;;;;;7.50;3.58;;;26.80;45.50;;;;;;6017393;29;20041;-70
2022/06/15 01:39:57;;;;;;;9.65;3.75;;;26.80;45.50;;;;;;6036668;29;20029;-70
2022/06/15 01:43:05;;;;;;;5.70;4.15;;;26.80;45.60;;;;;;6034337;29;20072;-70
2022/06/15 01:46:07;;;;;;;7.10;3.47;;;26.70;45.80;;;;;;6034945;29;20498;-70
2022/06/15 01:49:14;;;;;;;10.52;3.80;;;26.70;45.80;;;;;;6034387;29;20379;-70
2022/06/15 01:52:24;;;;;;;8.45;4.50;;;26.70;45.90;;;;;;6034986;29;20029;-70
2022/06/15 01:55:40;;;;;;;8.10;4.82;;;26.70;46.00;;;;;;6039703;29;20059;-70
2022/06/15 01:58:45;;;;;;;12.15;5.53;;;26.70;45.90;;;;;;6064195;29;20028;-71
2022/06/15 02:01:50;;;;;;;12.52;5.57;;;26.70;46.00;;;;;;6061723;29;20478;-70
2022/06/15 02:05:11;;;;;;;11.25;5.38;;;26.70;46.00;;;;;;6053246;29;20028;-70
2022/06/15 02:08:28;;;;;;;10.32;5.30;;;26.70;46.10;;;;;;6078093;29;20020;-71
2022/06/15 02:11:34;;;;;;;11.38;5.38;;;26.70;46.10;;;;;;6087808;28;20095;-71
2022/06/15 02:14:45;;;;;;;10.40;5.72;;;26.60;46.10;;;;;;6193801;28;20494;-70
2022/06/15 02:17:47;;;;;;;;;;;26.70;46.10;;;;;;6162218;28;20019;-70
2022/06/15 02:20:53;;;;;;;10.90;5.57;;;26.70;46.10;;;;;;6182598;28;19964;-70
2022/06/15 02:23:58;;;;;;;16.17;6.00;;;26.70;45.90;;;;;;6156107;28;20026;-70
2022/06/15 02:27:03;;;;;;;14.32;6.28;;;26.70;45.90;;;;;;6170751;28;20026;-70
2022/06/15 02:30:09;;;;;;;12.90;5.85;;;26.70;46.00;;;;;;6159557;28;20037;-70
2022/06/15 02:33:24;;;;;;;14.65;5.50;;;26.60;45.90;;;;;;6152933;28;20041;-70
2022/06/15 02:36:26;;;;;;;17.02;5.88;;;26.60;45.90;;;;;;6167841;28;20080;-71
2022/06/15 02:39:28;;;;;;;25.60;6.30;;;26.70;45.90;;;;;;6150417;28;20035;-70
2022/06/15 02:42:35;;;;;;;9.20;4.93;;;26.60;45.90;;;;;;6164804;28;20109;-69
2022/06/15 02:45:47;;;;;;;15.85;5.28;;;26.60;45.90;;;;;;6176349;28;20039;-70
2022/06/15 02:48:50;;;;;;;13.63;5.55;;;26.70;45.90;;;;;;6168910;28;20018;-71
2022/06/15 02:51:59;;;;;;;15.50;4.32;;;26.70;45.90;;;;;;6148448;28;20026;-70
2022/06/15 02:55:01;;;;;;;7.80;4.03;;;26.60;45.90;;;;;;6165564;28;20042;-70
2022/06/15 02:58:08;;;;;;;8.95;4.68;;;26.60;45.90;;;;;;6166017;28;20026;-71
2022/06/15 03:01:17;;;;;;;15.25;4.72;;;26.60;46.00;;;;;;6165527;28;20105;-71
2022/06/15 03:04:19;;;;;;;13.90;4.45;;;26.60;46.00;;;;;;6170666;28;20027;-71
2022/06/15 03:07:22;;;;;;;12.07;4.88;;;26.50;45.90;;;;;;6150602;28;20023;-71
2022/06/15 03:10:24;;;;;;;14.63;4.90;;;26.50;46.00;;;;;;6164974;28;20356;-71
2022/06/15 03:13:27;;;;;;;9.43;4.80;;;26.50;46.00;;;;;;6156091;28;20548;-70
2022/06/15 03:16:32;;;;;;;10.57;5.03;;;26.50;46.10;;;;;;6180022;28;20349;-70
2022/06/15 03:19:33;;;;;;;8.70;3.80;;;26.50;46.10;;;;;;6172092;28;20109;-70
2022/06/15 03:22:37;;;;;;;10.80;4.10;;;26.50;46.20;;;;;;6189550;28;20439;-70
2022/06/15 03:25:45;;;;;;;5.15;3.20;;;26.50;46.20;;;;;;6186015;28;20030;-70
2022/06/15 03:28:48;;;;;;;12.10;4.15;;;26.40;46.30;;;;;;6169352;28;20428;-70
2022/06/15 03:31:52;;;;;;;10.27;3.47;;;26.40;46.30;;;;;;6190834;28;20026;-69
2022/06/15 03:34:57;;;;;;;8.60;3.35;;;26.40;46.30;;;;;;6197359;28;20034;-70
2022/06/15 03:37:58;;;;;;;6.10;2.53;;;26.40;46.30;;;;;;6185827;28;20050;-70
2022/06/15 03:41:10;;;;;;;6.43;2.80;;;26.40;46.20;;;;;;6177326;28;20033;-69
2022/06/15 03:44:11;;;;;;;7.68;3.55;;;26.40;46.10;;;;;;6199869;28;20164;-69
2022/06/15 03:47:16;;;;;;;10.70;5.00;;;26.30;46.80;;;;;;6173023;28;20324;-70
2022/06/15 03:50:17;;;;;;;20.20;5.53;;;26.30;46.40;;;;;;6180434;28;20125;-72
2022/06/15 03:53:23;;;;;;;11.25;5.45;;;26.30;46.60;;;;;;6175974;28;20030;-70
2022/06/15 03:56:43;;;;;;;15.60;5.20;;;26.20;46.70;;;;;;6163731;28;20019;-70
2022/06/15 03:59:48;;;;;;;10.95;5.18;;;26.20;47.10;;;;;;6196453;28;20026;-69
2022/06/15 04:03:08;;;;;;;10.52;4.97;;;26.20;47.90;;;;;;6182621;28;20372;-69
2022/06/15 04:06:32;;;;;;;9.63;5.00;;;26.10;47.60;;;;;;6179235;28;20030;-70
2022/06/15 04:09:33;;;;;;;12.18;4.82;;;26.00;47.90;;;;;;6181124;28;20076;-70
2022/06/15 04:12:38;;;;;;;13.18;4.93;;;25.90;48.00;;;;;;6180923;28;20018;-70
2022/06/15 04:15:40;;;;;;;11.65;4.60;;;25.90;48.10;;;;;;6195865;28;20138;-70
2022/06/15 04:18:41;;;;;;;8.32;4.57;;;25.80;48.20;;;;;;6182544;28;20097;-71
2022/06/15 04:21:47;;;;;;;13.15;4.72;;;25.80;48.30;;;;;;6196181;28;20022;-69
2022/06/15 04:24:48;;;;;;;10.05;4.63;;;25.80;48.30;;;;;;6170040;28;20347;-70
2022/06/15 04:27:49;;;;;;;8.70;4.15;;;25.80;48.30;;;;;;6176706;28;20029;-69
2022/06/15 04:30:51;;;;;;;11.18;4.95;;;25.80;48.50;;;;;;6180284;28;20121;-71
2022/06/15 04:33:56;;;;;;;14.43;6.55;;;25.80;48.70;;;;;;6174493;28;20022;-71
2022/06/15 04:36:58;;;;;;;19.58;7.57;;;25.80;48.80;;;;;;6180792;28;20406;-70
2022/06/15 04:39:59;;;;;;;30.10;7.00;;;25.80;48.80;;;;;;6190287;28;20022;-70
2022/06/15 04:43:00;;;;;;;8.55;5.05;;;25.70;48.60;;;;;;6187031;28;20033;-71
2022/06/15 04:46:03;;;;;;;24.33;6.03;;;25.70;48.70;;;;;;6204545;28;20033;-70
2022/06/15 04:49:05;;;;;;;11.10;5.45;;;25.70;48.70;;;;;;6179995;28;20097;-70
2022/06/15 04:52:26;;;;;;;14.70;6.38;;;25.70;48.70;;;;;;6203317;28;20042;-70
2022/06/15 04:55:29;;;;;;;17.20;7.30;;;25.70;48.80;;;;;;6181293;28;20030;-69
2022/06/15 04:58:33;;;;;;;13.90;7.50;;;25.70;48.80;;;;;;6197097;28;20477;-69
2022/06/15 05:01:35;;;;;;;22.35;8.30;;;25.70;48.80;;;;;;6210662;28;20022;-69
2022/06/15 05:04:36;;;;;;;26.17;9.02;;;25.70;49.30;;;;;;6185550;28;20018;-71
2022/06/15 05:07:38;;;;;;;25.35;7.60;;;25.70;48.70;;;;;;6183951;28;20030;-68
2022/06/15 05:10:39;;;;;;;21.02;8.23;;;25.70;48.80;;;;;;6187490;28;20335;-70
2022/06/15 05:13:40;;;;;;;18.13;7.45;;;25.70;48.80;;;;;;6204785;28;20065;-70
2022/06/15 05:16:43;;;;;;;15.82;7.38;;;25.70;48.90;;;;;;6193247;28;20034;-70
2022/06/15 05:19:50;;;;;;;16.92;7.32;;;25.70;48.80;;;;;;6186354;28;20026;-70
2022/06/15 05:22:53;;;;;;;14.43;6.45;;;25.80;48.70;;;;;;6194149;28;20036;-69
2022/06/15 05:25:59;;;;;;;12.68;6.53;;;25.80;48.50;;;;;;6201452;28;20031;-70
2022/06/15 05:29:02;;;;;;;11.93;6.28;;;26.00;48.40;;;;;;6182994;28;20026;-69
2022/06/15 05:32:06;;;;;;;11.57;5.47;;;26.00;48.20;;;;;;6179151;28;20036;-69
2022/06/15 05:35:07;;;;;;;13.18;5.32;;;26.00;48.00;;;;;;6185570;28;20085;-69
2022/06/15 05:38:08;;;;;;;19.42;6.55;;;26.10;47.80;;;;;;6180561;28;20030;-71
2022/06/15 05:41:11;;;;;;;15.90;6.15;;;26.20;47.60;;;;;;6177787;28;20085;-70
2022/06/15 05:47:16;;;;;;;10.13;5.68;;;26.20;47.60;;;;;;6182830;28;20033;-70
2022/06/15 05:50:23;;;;;;;12.68;6.40;;;26.30;47.80;;;;;;6179069;28;20110;-70
2022/06/15 05:53:34;;;;;;;15.45;6.30;;;26.30;47.90;;;;;;6182225;28;20022;-71
2022/06/15 05:56:35;;;;;;;19.77;5.53;;;26.30;48.00;;;;;;6181784;28;20527;-71
2022/06/15 05:59:36;;;;;;;10.23;5.40;;;26.30;47.90;;;;;;6200118;28;20026;-70
2022/06/15 06:02:37;;;;;;;14.73;5.47;;;26.40;47.90;;;;;;6180556;28;20026;-71
2022/06/15 06:05:38;;;;;;;15.52;5.32;;;26.40;47.70;;;;;;6180036;28;20100;-70
2022/06/15 06:08:39;;;;;;;13.00;4.72;;;26.60;47.60;;;;;;6195411;28;20023;-70
2022/06/15 06:11:40;;;;;;;11.63;4.22;;;26.60;47.30;;;;;;6182494;28;20018;-70
2022/06/15 06:14:42;;;;;;;11.27;4.72;;;26.80;47.00;;;;;;6200505;28;20447;-70
2022/06/15 06:17:43;;;;;;;12.27;4.60;;;26.90;46.70;;;;;;6201352;28;20081;-70
2022/06/15 06:20:44;;;;;;;14.27;5.05;;;27.00;46.50;;;;;;6177323;28;20026;-69
2022/06/15 06:23:45;;;;;;;14.43;4.28;;;27.10;46.40;;;;;;6181643;28;20463;-69
2022/06/15 06:26:46;;;;;;;8.13;4.22;;;27.20;46.00;;;;;;6189710;28;20091;-69
2022/06/15 06:29:47;;;;;;;9.82;3.65;;;27.40;45.60;;;;;;6201644;28;20392;-70
2022/06/15 06:32:49;;;;;;;11.70;3.58;;;27.40;45.20;;;;;;6201943;28;20037;-69
2022/06/15 06:35:50;;;;;;;13.20;4.43;;;27.50;45.10;;;;;;6177034;28;20498;-70
2022/06/15 06:38:51;;;;;;;8.63;3.75;;;27.50;44.90;;;;;;6200782;28;20022;-70
2022/06/15 06:41:53;;;;;;;7.15;3.67;;;27.70;44.80;;;;;;6207002;28;20038;-72
2022/06/15 06:44:54;;;;;;;12.30;4.30;;;27.80;44.60;;;;;;6179823;28;20065;-70
2022/06/15 06:47:56;;;;;;;7.75;4.13;;;27.80;44.50;;;;;;6184066;28;20026;-71
2022/06/15 06:50:57;;;;;;;13.75;4.80;;;27.90;44.50;;;;;;6193368;28;20060;-72
2022/06/15 06:53:58;;;;;;;11.65;4.35;;;27.90;44.40;;;;;;6187940;28;20026;-71
2022/06/15 06:56:59;;;;;;;18.20;5.18;;;28.00;44.40;;;;;;6179311;28;20185;-71
2022/06/15 06:59:59;;;;;;;10.70;4.63;;;28.00;44.20;;;;;;6186494;28;20200;-71
2022/06/15 07:03:02;;;;;;;15.25;4.55;;;28.10;44.10;;;;;;6200373;28;20025;-71
2022/06/15 07:06:07;;;;;;;13.55;4.75;;;28.20;44.00;;;;;;6182928;28;20432;-70
2022/06/15 07:09:08;;;;;;;6.97;4.47;;;28.30;43.80;;;;;;6183258;28;20342;-70
2022/06/15 07:12:09;;;;;;;10.98;4.40;;;28.50;43.60;;;;;;6179578;28;20120;-72
2022/06/15 07:15:12;;;;;;;8.55;4.35;;;28.60;43.40;;;;;;6188216;28;20157;-70
2022/06/15 07:18:13;;;;;;;7.72;4.18;;;28.80;43.10;;;;;;6191396;28;20030;-71
2022/06/15 07:21:20;;;;;;;7.78;3.42;;;29.00;42.80;;;;;;6173208;28;20626;-72
2022/06/15 07:24:21;;;;;;;6.93;3.80;;;29.10;42.40;;;;;;6202296;28;20120;-71
2022/06/15 07:27:23;;;;;;;8.50;3.30;;;29.20;42.10;;;;;;6204538;28;20032;-70
2022/06/15 07:30:26;;;;;;;9.88;3.20;;;29.60;41.70;;;;;;6178965;28;20019;-72
2022/06/15 07:33:27;;;;;;;5.30;3.03;;;29.70;41.10;;;;;;6182969;28;20360;-71
2022/06/15 07:36:29;;;;;;;7.57;3.00;;;30.00;40.40;;;;;;6179583;28;20102;-71
2022/06/15 07:39:30;;;;;;;4.00;2.80;;;30.10;39.50;;;;;;6194212;28;20024;-72
2022/06/15 07:42:31;;;;;;;5.05;2.80;;;30.30;39.20;;;;;;6185324;28;20070;-71
2022/06/15 07:45:31;;;;;;;8.13;3.00;;;30.30;39.00;;;;;;6195995;28;20037;-72
2022/06/15 07:51:58;;;;;;;8.55;3.60;;;30.30;38.70;;;;;;6174953;28;20109;-70
2022/06/15 07:54:59;;;;;;;7.65;2.97;;;30.30;38.70;;;;;;6172709;28;20033;-72
2022/06/15 07:58:01;;;;;;;7.82;3.63;;;30.30;38.60;;;;;;6186396;28;20105;-69
2022/06/15 08:01:02;;;;;;;15.07;3.30;;;30.30;38.80;;;;;;6193818;28;20040;-71
2022/06/15 08:04:04;;;;;;;14.38;3.28;;;30.40;38.90;;;;;;6193779;28;20843;-70
2022/06/15 08:07:07;;;;;;;6.07;3.03;;;30.30;38.90;;;;;;6178768;28;20014;-72
2022/06/15 08:10:09;;;;;;;13.80;3.80;;;30.30;38.90;;;;;;6181084;28;20079;-72
2022/06/15 08:13:10;;;;;;;9.65;3.72;;;30.30;39.10;;;;;;6197977;28;20416;-71
2022/06/15 08:16:13;;;;;;;8.63;3.47;;;30.30;39.20;;;;;;6182411;28;20037;-71
2022/06/15 08:19:14;;;;;;;5.32;2.90;;;30.40;39.20;;;;;;6179053;28;20109;-70
2022/06/15 08:22:15;;;;;;;12.32;3.58;;;30.40;39.10;;;;;;6198368;28;20355;-71
2022/06/15 08:25:24;;;;;;;16.75;3.40;;;30.60;38.90;;;;;;6201545;28;20369;-71
2022/06/15 08:28:30;;;;;;;8.57;3.40;;;30.70;38.50;;;;;;6193834;28;20014;-72
2022/06/15 08:31:31;;;;;;;9.48;3.30;;;30.90;38.00;;;;;;6198013;28;20411;-71
2022/06/15 08:34:36;;;;;;;8.10;3.08;;;31.10;37.70;;;;;;6180058;28;20026;-71
2022/06/15 08:37:37;;;;;;;8.23;3.17;;;31.20;37.50;;;;;;6176638;28;20459;-70
2022/06/15 08:40:49;;;;;;;13.82;3.90;;;31.30;37.50;;;;;;6201908;28;20113;-70
2022/06/15 08:44:37;;;;;;;4.63;2.72;;;31.40;37.70;;;;;;6195600;28;20033;-70
2022/06/15 08:48:02;;;;;;;6.55;3.15;;;31.50;37.90;;;;;;6145814;28;20121;-70
2022/06/15 08:51:26;;;;;;;9.20;3.40;;;31.50;37.80;;;;;;6140191;28;20368;-70
2022/06/15 08:54:29;;;;;;;9.77;3.38;;;31.60;37.60;;;;;;6131057;28;20019;-71
2022/06/15 08:57:47;;;;;;;5.40;3.53;;;31.70;37.40;;;;;;6139799;28;20164;-70
2022/06/15 09:00:51;;;;;;;9.55;3.17;;;31.80;37.20;;;;;;6145464;28;20027;-72
2022/06/15 09:04:13;;;;;;;8.27;3.20;;;31.90;37.00;;;;;;6129242;28;20043;-70
2022/06/15 09:08:07;;;;;;;9.35;3.05;;;31.90;36.80;;;;;;6144632;28;20041;-72
2022/06/15 09:11:16;;;;;;;18.40;3.53;;;31.80;37.00;;;;;;6052272;29;20048;-73
2022/06/15 09:14:26;;;;;;;10.60;3.47;;;31.80;37.00;;;;;;6063383;29;20037;-71
2022/06/15 09:17:29;;;;;;;15.38;3.05;;;31.80;37.10;;;;;;6057841;29;20037;-70
2022/06/15 09:20:37;;;;;;;11.18;3.53;;;31.80;37.00;;;;;;6048283;29;21957;-71
2022/06/15 09:23:57;;;;;;;6.88;3.33;;;31.70;36.90;;;;;;6067154;29;20140;-71
2022/06/15 09:27:06;;;;;;;5.88;3.10;;;31.60;36.80;;;;;;6070471;29;20025;-72
2022/06/15 09:30:17;;;;;;;6.20;3.22;;;31.50;36.80;;;;;;6083781;29;20111;-72
2022/06/15 09:33:29;;;;;;;8.85;3.88;;;31.50;37.00;;;;;;6082865;29;20052;-70
2022/06/15 09:36:46;;;;;;;6.47;3.58;;;31.40;37.00;;;;;;6088860;29;20056;-71
2022/06/15 09:39:47;;;;;;;6.20;2.95;;;31.30;37.20;;;;;;6064618;29;20052;-70
2022/06/15 09:43:20;;;;;;;10.30;3.88;;;31.20;37.30;;;;;;6071677;29;20109;-70
2022/06/15 09:46:38;;;;;;;22.67;3.42;;;31.10;37.60;;;;;;6199710;28;20049;-72
2022/06/15 09:49:47;;;;;;;10.82;3.85;;;31.10;37.70;;;;;;6184398;28;20026;-70
2022/06/15 09:53:23;;;;;;;8.60;3.38;;;31.10;37.80;;;;;;6187155;28;20034;-71
2022/06/15 09:56:25;;;;;;;13.75;3.50;;;31.10;37.90;;;;;;6182361;28;20065;-72
2022/06/15 09:59:32;;;;;;;19.45;3.70;;;31.20;37.80;;;;;;6180186;28;20070;-70
2022/06/15 10:02:37;;;;;;;11.57;3.47;;;31.30;37.80;;;;;;6169580;28;20100;-71
2022/06/15 10:05:40;;;;;;;10.82;3.30;;;31.20;38.30;;;;;;6201272;28;20546;-70
2022/06/15 10:08:41;;;;;;;12.65;3.63;;;31.40;37.40;;;;;;6188998;28;20049;-70
2022/06/15 10:11:47;;;;;;;13.75;3.80;;;31.50;37.20;;;;;;6199462;28;20106;-70
2022/06/15 10:14:49;;;;;;;16.92;3.63;;;31.50;37.30;;;;;;6200861;28;20050;-71
2022/06/15 10:17:54;;;;;;;10.82;3.35;;;31.50;37.40;;;;;;6199046;28;20045;-71
2022/06/15 10:21:13;;;;;;;17.30;3.85;;;31.60;37.20;;;;;;6177084;28;20351;-71
2022/06/15 10:24:17;;;;;;;8.30;3.50;;;31.80;36.90;;;;;;6199472;28;20030;-71
2022/06/15 10:27:23;;;;;;;7.65;3.40;;;32.00;36.80;;;;;;6178969;28;20032;-71
2022/06/15 10:30:24;;;;;;;9.82;3.50;;;32.10;36.50;;;;;;6187085;28;20010;-70
2022/06/15 10:33:36;;;;;;;14.75;3.45;;;32.20;36.40;;;;;;6182547;28;20045;-70
2022/06/15 10:36:37;;;;;;;19.60;4.05;;;32.40;36.00;;;;;;6174632;28;20041;-70
2022/06/15 10:39:43;;;;;;;17.33;3.90;;;32.70;35.80;;;;;;6179533;28;20057;-70
2022/06/15 10:42:53;;;;;;;9.18;3.63;;;32.90;35.60;;;;;;6172714;28;20046;-71
2022/06/15 10:45:56;;;;;;;13.30;3.97;;;33.10;35.30;;;;;;6198961;28;20407;-71
2022/06/15 10:48:57;;;;;;;10.35;3.53;;;33.30;35.00;;;;;;6195409;28;20026;-71
2022/06/15 10:51:59;;;;;;;13.90;3.38;;;33.50;34.80;;;;;;6189254;28;20033;-72
2022/06/15 11:02:31;;;;;;;13.20;3.60;;;33.70;34.30;;;;;;6198124;28;20034;-71
2022/06/15 11:05:32;;;;;;;;;;;33.50;34.20;;;;;;6176068;28;20375;-70
2022/06/15 11:08:34;;;;;;;16.80;3.35;;;33.40;34.20;;;;;;6189411;28;19965;-71
2022/06/15 11:11:35;;;;;;;19.70;3.85;;;33.30;34.10;;;;;;6182543;28;20023;-71
2022/06/15 11:15:05;;;;;;;8.52;3.55;;;33.30;34.20;;;;;;6178154;28;20200;-72
2022/06/15 11:18:19;;;;;;;15.20;3.65;;;33.30;34.40;;;;;;6182380;28;20062;-70
2022/06/15 11:21:25;;;;;;;13.52;4.40;;;33.40;34.30;;;;;;6194339;28;20035;-72
2022/06/15 11:24:50;;;;;;;9.88;3.85;;;33.80;34.70;;;;;;6188072;28;20491;-71
2022/06/15 11:28:02;;;;;;;20.25;4.40;;;34.40;33.20;;;;;;6168974;28;20029;-70
2022/06/15 11:31:09;;;;;;;11.90;3.28;;;35.00;32.30;;;;;;6167453;28;20022;-70
2022/06/15 11:34:16;;;;;;;9.43;3.10;;;35.20;31.90;;;;;;6196410;28;20054;-70
2022/06/15 11:37:24;;;;;;;9.43;3.03;;;35.20;31.70;;;;;;6185979;28;20045;-70
2022/06/15 11:40:46;;;;;;;24.42;3.60;;;35.10;31.80;;;;;;6194999;28;20437;-71
2022/06/15 11:43:50;;;;;;;12.68;3.30;;;35.10;31.80;;;;;;6181466;28;20061;-71
2022/06/15 11:47:13;;;;;;;14.57;3.53;;;35.20;31.40;;;;;;6177563;28;20348;-71
2022/06/15 11:50:29;;;;;;;7.65;3.15;;;35.40;31.20;;;;;;6181624;28;20412;-72
2022/06/15 11:53:52;;;;;;;7.07;2.90;;;35.70;30.70;;;;;;6195484;28;20038;-71
2022/06/15 11:57:25;;;;;;;11.50;3.63;;;36.00;30.30;;;;;;6178487;28;20065;-70
2022/06/15 12:00:37;;;;;;;4.90;2.85;;;36.50;30.00;;;;;;6188791;28;20026;-72
2022/06/15 12:04:16;;;;;;;10.73;2.92;;;37.30;29.00;;;;;;6189745;28;20030;-72
2022/06/15 12:07:48;;;;;;;15.85;3.20;;;37.30;28.50;;;;;;6170154;28;20344;-70
2022/06/15 12:10:51;;;;;;;19.42;3.30;;;36.90;28.60;;;;;;6184022;28;20022;-70
2022/06/15 12:14:13;;;;;;;15.32;3.47;;;36.50;28.90;;;;;;6194672;28;20141;-71
2022/06/15 12:17:37;;;;;;;14.20;4.00;;;36.20;29.00;;;;;;6198239;28;20803;-71
2022/06/15 12:20:52;;;;;;;12.15;3.35;;;36.00;29.30;;;;;;6124141;29;20046;-72
2022/06/15 12:24:04;;;;;;;6.30;3.13;;;36.00;29.30;;;;;;6115106;29;20114;-71
2022/06/15 12:27:51;;;;;;;5.57;3.40;;;36.00;29.20;;;;;;6124672;29;20118;-71
2022/06/15 12:31:01;;;;;;;7.15;3.75;;;35.80;29.40;;;;;;6069016;29;20028;-70
2022/06/15 12:34:15;;;;;;;10.85;3.42;;;35.80;29.50;;;;;;6090944;29;20076;-71
2022/06/15 12:37:36;;;;;;;8.85;3.63;;;35.80;29.50;;;;;;6093077;29;20040;-70
2022/06/15 12:40:58;;;;;;;11.85;3.30;;;35.90;29.80;;;;;;6077768;29;20036;-71
2022/06/15 12:44:02;;;;;;;12.20;3.70;;;35.70;30.00;;;;;;6108168;29;20094;-72
2022/06/15 12:47:03;;;;;;;21.77;3.00;;;35.60;30.30;;;;;;6111127;29;20135;-70
2022/06/15 12:50:06;;;;;;;16.92;4.15;;;35.50;30.70;;;;;;6110113;29;20107;-70
2022/06/15 12:53:40;;;;;;;12.75;3.50;;;35.30;31.00;;;;;;6109438;29;20093;-71
2022/06/15 12:56:52;;;;;;;10.38;3.17;;;35.50;31.20;;;;;;6097524;29;20079;-71
2022/06/15 13:00:02;;;;;;;6.25;2.95;;;36.00;30.70;;;;;;6114331;29;20061;-71
2022/06/15 13:03:17;;;;;;;15.52;3.08;;;36.60;30.00;;;;;;6112817;29;20030;-70
2022/06/15 13:06:21;;;;;;;7.35;3.00;;;37.20;29.50;;;;;;6130703;28;20029;-71
2022/06/15 13:09:22;;;;;;;14.07;3.33;;;37.70;29.00;;;;;;6179868;28;20030;-71
2022/06/15 13:12:32;;;;;;;21.27;3.28;;;38.10;28.60;;;;;;6178376;28;20030;-72
2022/06/15 13:15:55;;;;;;;14.75;3.15;;;38.40;28.20;;;;;;6143470;28;1206923;-71
2022/06/15 13:18:57;;;;;;;8.50;3.25;;;38.80;27.70;;;;;;6180215;28;20038;-72
2022/06/15 13:22:08;;;;;;;7.72;3.22;;;39.40;27.00;;;;;;6198932;28;20041;-70
2022/06/15 13:25:17;;;;;;;7.95;3.67;;;39.90;26.30;;;;;;6180148;28;20340;-71
2022/06/15 13:28:28;;;;;;;9.15;3.15;;;40.00;25.90;;;;;;6185606;28;20022;-71
2022/06/15 13:31:47;;;;;;;7.32;2.72;;;39.90;25.70;;;;;;6201411;28;20033;-71
2022/06/15 13:34:48;;;;;;;10.32;2.97;;;39.90;25.90;;;;;;6187820;28;20022;-71
2022/06/15 13:38:15;;;;;;;8.80;2.85;;;39.70;25.80;;;;;;6189344;28;20340;-71
2022/06/15 13:41:24;;;;;;;19.30;3.40;;;39.10;26.30;;;;;;6195335;28;20080;-72
2022/06/15 13:44:28;;;;;;;18.38;3.30;;;38.40;26.90;;;;;;6188069;28;20019;-72
2022/06/15 13:47:53;;;;;;;9.73;2.92;;;37.70;27.70;;;;;;6183644;28;20033;-72
2022/06/15 13:51:11;;;;;;;8.27;3.50;;;37.00;28.50;;;;;;6202019;28;20022;-71
2022/06/15 13:54:30;;;;;;;10.10;3.20;;;36.30;29.30;;;;;;6182478;28;20121;-71
2022/06/15 13:57:57;;;;;;;6.35;3.00;;;35.70;30.00;;;;;;6195740;28;20018;-71
2022/06/15 14:01:19;;;;;;;6.18;3.22;;;35.20;30.80;;;;;;6181066;28;20093;-70
2022/06/15 14:04:55;;;;;;;14.07;4.20;;;34.80;31.40;;;;;;6202543;28;20826;-71
2022/06/15 14:08:31;;;;;;;27.95;4.72;;;34.40;31.80;;;;;;6160510;28;20045;-71
2022/06/15 14:11:52;;;;;;;11.32;3.25;;;34.20;32.60;;;;;;6139507;28;20079;-71
2022/06/15 14:15:30;;;;;;;21.30;3.90;;;33.90;33.80;;;;;;6158033;28;20046;-72
2022/06/15 14:18:40;;;;;;;15.98;3.63;;;33.60;35.30;;;;;;6155785;28;20066;-72
2022/06/15 14:21:41;;;;;;;12.57;3.63;;;33.40;36.60;;;;;;6158378;28;20031;-71
2022/06/15 14:24:42;;;;;;;14.55;3.85;;;33.50;37.10;;;;;;6167826;28;20042;-70
2022/06/15 14:27:56;;;;;;;11.75;3.25;;;34.70;35.80;;;;;;6169647;28;20022;-72
2022/06/15 14:31:14;;;;;;;11.55;3.28;;;36.80;33.30;;;;;;6181272;28;20034;-72
2022/06/15 14:34:16;;;;;;;;;;;39.20;30.30;;;;;;6183128;28;20044;-72
2022/06/15 14:37:22;;;;;;;32.45;3.90;;;41.10;28.30;;;;;;6172547;28;19909;-72
2022/06/15 14:40:41;;;;;;;12.93;3.17;;;42.30;27.10;;;;;;6170220;28;20100;-72
2022/06/15 14:43:43;;;;;;;10.82;3.20;;;42.70;26.70;;;;;;6170692;28;20042;-72
2022/06/15 14:46:46;;;;;;;14.98;2.80;;;42.90;26.50;;;;;;6200452;28;20112;-72
2022/06/15 14:49:51;;;;;;;5.43;2.90;;;43.50;26.00;;;;;;6180714;28;20579;-72
2022/06/15 14:52:51;;;;;;;11.60;3.35;;;44.30;25.10;;;;;;6184713;28;20541;-72
2022/06/15 14:56:02;;;;;;;8.95;2.97;;;45.20;24.30;;;;;;6196245;28;20042;-72
2022/06/15 14:59:11;;;;;;;15.20;2.65;;;46.00;23.10;;;;;;6179260;28;20344;-70
2022/06/15 15:02:12;;;;;;;12.13;2.47;;;46.60;22.70;;;;;;6187318;28;20049;-70
2022/06/15 15:05:15;;;;;;;9.50;3.50;;;47.00;22.00;;;;;;6198834;28;20015;-71
2022/06/15 15:08:34;;;;;;;9.90;2.85;;;46.90;21.70;;;;;;6204361;28;20017;-71
2022/06/15 15:11:38;;;;;;;6.85;2.55;;;46.20;21.80;;;;;;6196519;28;20465;-71
2022/06/15 15:14:49;;;;;;;10.52;3.13;;;45.50;22.20;;;;;;6179329;28;20038;-71
2022/06/15 15:17:56;;;;;;;18.50;2.88;;;45.50;22.20;;;;;;6182292;28;20135;-72
2022/06/15 15:20:58;;;;;;;16.48;2.72;;;45.70;21.80;;;;;;6194057;28;20427;-72
2022/06/15 15:24:21;;;;;;;14.02;2.90;;;45.30;21.60;;;;;;6175181;28;20026;-72
2022/06/15 15:34:32;;;;;;;8.98;2.72;;;45.30;21.10;;;;;;6197380;28;20026;-71
2022/06/15 15:37:35;;;;;;;13.18;2.30;;;45.60;20.90;;;;;;6200932;28;20026;-71
2022/06/15 15:40:36;;;;;;;9.40;2.45;;;45.80;20.70;;;;;;6190833;28;20018;-72
2022/06/15 15:43:40;;;;;;;10.02;2.50;;;46.00;20.40;;;;;;6181243;28;20388;-72
2022/06/15 15:46:41;;;;;;;12.77;2.78;;;46.00;20.10;;;;;;6181828;28;20431;-72
2022/06/15 15:49:42;;;;;;;11.43;2.65;;;46.10;20.10;;;;;;6178414;28;20034;-72
2022/06/15 15:52:45;;;;;;;9.38;2.45;;;46.50;19.90;;;;;;6199404;28;20031;-72
2022/06/15 15:55:49;;;;;;;14.48;3.10;;;46.70;20.40;;;;;;6203936;28;20030;-70
2022/06/15 15:58:50;;;;;;;10.20;2.70;;;46.60;20.10;;;;;;6165120;28;20029;-72
2022/06/15 16:01:52;;;;;;;14.07;2.65;;;46.20;20.60;;;;;;6198930;28;20400;-72
2022/06/15 16:04:53;;;;;;;12.35;2.75;;;45.60;21.20;;;;;;6180404;28;20033;-72
2022/06/15 16:07:56;;;;;;;10.57;3.15;;;45.10;21.50;;;;;;6179227;28;20038;-72
2022/06/15 16:10:56;;;;;;;11.85;2.75;;;44.70;21.80;;;;;;6183075;28;20084;-71
2022/06/15 16:13:57;;;;;;;22.15;3.20;;;43.90;22.50;;;;;;6177517;28;20046;-72
2022/06/15 16:17:01;;;;;;;12.45;2.40;;;43.20;23.10;;;;;;6180929;28;20186;-71
2022/06/15 16:20:13;;;;;;;8.40;2.33;;;42.20;23.90;;;;;;6179652;28;20034;-71
2022/06/15 16:23:17;;;;;;;7.85;2.53;;;41.10;24.70;;;;;;6197238;28;20022;-71
2022/06/15 16:26:18;;;;;;;11.85;2.72;;;40.40;25.20;;;;;;6181413;28;20033;-71
2022/06/15 16:29:18;;;;;;;7.60;3.03;;;40.30;25.20;;;;;;6173391;28;20018;-71
2022/06/15 16:32:20;;;;;;;15.70;2.90;;;40.10;25.40;;;;;;6198416;28;20014;-71
2022/06/15 16:35:21;;;;;;;15.75;2.90;;;39.40;26.10;;;;;;6190610;28;20434;-71